Latest Weather Observations for Port Fairy

IDV60801

Issued at 7:31 pm EDT Thursday 11 February 2016 (issued every 30 minutes, with the page automatically refreshed every 10 minutes)

About weather observations | Map of weather stations | Latest weather observations for VIC | Other Formats
Station Details ID: 090175 Name: PORT FAIRY AWS Lat: -38.39 Lon: 142.23 Height: 10.0 m
Data from the previous 72 hours. | See also: Recent months at Port Fairy
Date/Time
EDT
Temp
°C
App
Temp
°C
Dew
Point
Rel
Hum
%
Delta-T
°C
Wind Press
QNH
hPa
Press
MSL
hPa
Rain
since 9 am
mm
Dir
 
Spd
km/h
Gust
km/h
Spd
kts
Gust
kts
11/07:30pm 19.0 16.7 14.1 73 2.8 SE 19 26 10 14 1017.5 1017.5 0.0
11/07:00pm 19.6 17.3 14.6 73 2.9 SSE 20 26 11 14 1017.5 1017.5 0.0
11/06:30pm 20.1 17.4 14.7 71 3.2 SE 22 32 12 17 1016.9 1016.9 0.0
11/06:00pm 20.7 18.7 15.5 72 3.1 SE 20 28 11 15 1016.3 1016.3 0.0
11/05:30pm 21.5 19.7 15.6 69 3.5 SSE 19 26 10 14 1016.8 1016.8 0.0
11/05:00pm 22.2 20.4 15.5 66 4.0 SSE 19 24 10 13 1016.8 1016.8 0.0
11/04:30pm 22.6 21.3 15.7 65 4.1 SSE 17 26 9 14 1016.8 1016.8 0.0
11/04:00pm 22.8 21.2 15.9 65 4.2 SSE 19 24 10 13 1016.7 1016.7 0.0
11/03:30pm 22.3 20.5 16.1 68 3.7 SSE 20 28 11 15 1016.8 1016.8 0.0
11/03:00pm 22.3 20.7 15.9 67 3.8 SSE 19 28 10 15 1017.1 1017.1 0.0
11/02:30pm 21.5 19.6 15.8 70 3.4 SSE 20 24 11 13 1017.2 1017.2 0.0
11/02:00pm 21.9 20.4 16.4 71 3.3 SSE 19 22 10 12 1017.3 1017.3 0.0
11/01:30pm 20.8 19.4 15.6 72 3.1 SSE 17 22 9 12 1017.4 1017.4 0.0
11/01:00pm 21.7 20.9 16.2 71 3.3 SSE 15 20 8 11 1017.6 1017.6 0.0
11/12:30pm 22.4 22.7 16.9 71 3.4 SSE 11 17 6 9 1017.5 1017.5 0.0
11/12:00pm 21.1 21.0 15.9 72 3.1 SE 11 15 6 8 1017.6 1017.6 0.0
11/11:30am 20.9 20.5 15.2 70 3.4 SE 11 15 6 8 1017.6 1017.6 0.0
11/11:00am 20.9 21.0 15.4 71 3.3 SE 9 13 5 7 1017.9 1017.9 0.0
11/10:30am 20.9 21.2 16.1 74 2.9 SE 9 15 5 8 1018.0 1018.0 0.0
11/10:00am 20.1 20.7 15.7 76 2.6 SE 7 11 4 6 1018.3 1018.3 0.0
11/09:30am 19.7 20.6 16.2 80 2.1 SSE 6 9 3 5 1018.4 1018.4 0.0
11/09:00am 19.3 20.5 16.9 86 1.4 SE 6 7 3 4 1018.0 1018.0 0.0
11/08:30am 16.3 17.7 14.5 89 1.0 CALM 0 0 0 0 1017.7 1017.7 0.0
11/08:00am 15.2 15.6 13.7 91 0.8 W 4 4 2 2 1017.5 1017.5 0.0
11/07:30am 14.8 15.9 13.5 92 0.7 CALM 0 0 0 0 1017.3 1017.3 0.0
11/07:00am 16.3 16.7 15.3 94 0.6 SE 7 11 4 6 1016.9 1016.9 0.0
11/06:30am 16.4 16.8 15.3 93 0.6 SE 7 7 4 4 1016.7 1016.7 0.0
11/06:00am 16.2 16.1 14.9 92 0.7 SE 9 11 5 6 1016.5 1016.5 0.0
11/05:30am 16.3 16.2 15.0 92 0.8 SSE 9 11 5 6 1016.5 1016.5 0.0
11/05:00am 16.4 16.3 14.9 91 0.9 SSE 9 11 5 6 1016.3 1016.3 0.0
11/04:30am 16.4 16.2 14.8 90 0.9 SSE 9 13 5 7 1016.0 1016.0 0.0
11/04:00am 16.6 16.0 14.6 88 1.1 SSE 11 13 6 7 1016.1 1016.1 0.0
11/03:30am 16.7 16.1 14.5 87 1.3 SSE 11 13 6 7 1016.1 1016.1 0.0
11/03:00am 16.8 16.1 14.3 85 1.4 SSE 11 15 6 8 1016.3 1016.3 0.0
11/02:30am 17.2 15.8 14.5 84 1.6 SSE 15 17 8 9 1016.5 1016.5 0.0
11/02:00am 17.3 16.4 14.8 85 1.4 SSE 13 17 7 9 1016.7 1016.7 0.0
11/01:30am 17.1 16.4 14.4 84 1.5 SSE 11 15 6 8 1016.8 1016.8 0.0
11/01:00am 17.3 16.2 14.2 82 1.8 SSE 13 19 7 10 1017.1 1017.1 0.0
11/12:30am 17.7 16.7 14.6 82 1.8 SSE 13 15 7 8 1017.0 1017.0 0.0
11/12:00am 17.6 17.3 14.5 82 1.8 SSE 9 13 5 7 1017.0 1017.0 0.0
 
Date/Time
EDT
Temp
°C
App
Temp
°C
Dew
Point
Rel
Hum
%
Delta-T
°C
Wind Press
QNH
hPa
Press
MSL
hPa
Rain
since 9 am
mm
Dir
 
Spd
km/h
Gust
km/h
Spd
kts
Gust
kts
10/11:30pm 17.6 17.3 14.5 82 1.8 SSE 9 11 5 6 1017.1 1017.1 0.0
10/11:00pm 17.4 16.9 13.9 80 2.0 S 9 13 5 7 1017.2 1017.2 0.0
10/10:30pm 17.6 16.8 13.9 79 2.1 SSE 11 15 6 8 1017.2 1017.2 0.0
10/10:00pm 17.7 16.8 13.8 78 2.2 S 11 15 6 8 1017.1 1017.1 0.0
10/09:30pm 17.6 17.1 13.7 78 2.2 S 9 13 5 7 1017.0 1017.0 0.0
10/09:00pm 17.7 16.7 13.4 76 2.4 S 11 17 6 9 1016.9 1016.9 0.0
10/08:30pm 18.1 16.8 13.6 75 2.6 SSW 13 19 7 10 1016.8 1016.8 0.0
10/08:00pm 18.6 17.6 13.5 72 2.9 SSW 11 19 6 10 1016.5 1016.5 0.0
10/07:30pm 18.9 18.0 13.7 72 3.0 S 11 15 6 8 1016.2 1016.2 0.0
10/07:00pm 19.2 17.8 13.4 69 3.3 SSW 13 17 7 9 1016.0 1016.0 0.0
10/06:30pm 19.5 18.0 13.2 67 3.6 S 13 19 7 10 1016.0 1016.0 0.0
10/06:00pm 19.7 18.6 13.2 66 3.7 S 11 15 6 8 1015.9 1015.9 0.0
10/05:30pm 20.4 19.5 13.6 65 3.9 S 11 17 6 9 1015.8 1015.8 0.0
10/05:00pm 20.4 19.8 13.4 64 4.0 SSW 9 13 5 7 1015.7 1015.7 0.0
10/04:30pm 20.6 19.3 13.8 65 3.9 SSW 13 17 7 9 1015.7 1015.7 0.0
10/04:00pm 20.5 19.4 13.0 62 4.3 S 11 15 6 8 1015.8 1015.8 0.0
10/03:30pm 20.5 19.4 13.0 62 4.3 S 11 15 6 8 1015.9 1015.9 0.0
10/03:00pm 20.4 19.6 12.9 62 4.2 S 9 13 5 7 1016.2 1016.2 0.0
10/02:30pm 20.9 19.9 13.4 62 4.3 S 11 15 6 8 1016.3 1016.3 0.0
10/02:00pm 20.2 18.3 12.9 63 4.1 S 15 20 8 11 1016.4 1016.4 0.0
10/01:30pm 20.5 19.1 13.5 64 4.0 S 13 17 7 9 1016.5 1016.5 0.0
10/01:00pm 20.4 19.3 13.1 63 4.1 S 11 15 6 8 1016.7 1016.7 0.0
10/12:30pm 19.7 18.8 12.5 63 4.0 S 9 13 5 7 1016.9 1016.9 0.0
10/12:00pm 20.0 19.2 13.0 64 4.0 S 9 11 5 6 1017.1 1017.1 0.0
10/11:30am 19.3 18.5 13.0 67 3.6 S 9 15 5 8 1017.3 1017.3 0.0
10/11:00am 19.2 18.0 12.7 66 3.6 S 11 15 6 8 1017.4 1017.4 0.0
10/10:30am 19.1 17.9 12.8 67 3.5 S 11 15 6 8 1017.6 1017.6 0.0
10/10:00am 18.6 17.0 12.8 69 3.2 SSE 13 17 7 9 1017.4 1017.4 0.0
10/09:30am 18.6 17.1 13.0 70 3.2 SSE 13 17 7 9 1017.3 1017.3 0.0
10/09:00am 18.5 17.5 13.4 72 2.9 SSE 11 15 6 8 1016.8 1016.8 0.0
10/08:30am 17.9 17.1 13.0 73 2.7 SSE 9 13 5 7 1016.7 1016.7 0.0
10/08:00am 16.9 16.5 13.0 78 2.2 SSE 7 9 4 5 1016.3 1016.3 0.0
10/07:30am 16.5 15.6 13.6 83 1.6 SSE 11 15 6 8 1016.2 1016.2 0.0
10/07:00am 15.4 14.5 12.5 83 1.6 SE 9 13 5 7 1015.9 1015.9 0.0
10/06:30am 15.8 14.5 12.4 80 1.9 SSE 11 13 6 7 1015.8 1015.8 0.0
10/06:00am 16.2 15.3 12.7 80 1.9 SSE 9 13 5 7 1015.7 1015.7 0.0
10/05:30am 16.4 15.5 12.6 78 2.1 SSE 9 13 5 7 1015.7 1015.7 0.0
10/05:00am 16.4 14.9 13.1 81 1.8 SSE 13 19 7 10 1015.7 1015.7 0.0
10/04:30am 16.1 14.9 12.8 81 1.8 SSE 11 15 6 8 1015.7 1015.7 0.0
10/04:00am 16.0 14.8 12.9 82 1.7 SSE 11 15 6 8 1015.8 1015.8 0.0
10/03:30am 15.9 14.6 12.6 81 1.8 SE 11 13 6 7 1015.9 1015.9 0.0
10/03:00am 16.3 15.2 13.0 81 1.8 SE 11 17 6 9 1016.2 1016.2 0.0
10/02:30am 16.4 15.1 12.6 78 2.1 SE 11 17 6 9 1016.7 1016.7 0.0
10/02:00am 16.8 15.3 13.1 79 2.1 SSE 13 17 7 9 1017.1 1017.1 0.0
10/01:30am 16.7 15.2 13.2 80 2.0 SE 13 17 7 9 1017.2 1017.2 0.0
10/01:00am 16.5 15.0 13.2 81 1.8 SE 13 17 7 9 1017.5 1017.5 0.0
10/12:30am 16.8 15.1 13.5 81 1.9 SE 15 20 8 11 1017.6 1017.6 0.0
10/12:00am 16.4 14.7 13.5 83 1.6 SE 15 19 8 10 1017.8 1017.8 0.0
 
Date/Time
EDT
Temp
°C
App
Temp
°C
Dew
Point
Rel
Hum
%
Delta-T
°C
Wind Press
QNH
hPa
Press
MSL
hPa
Rain
since 9 am
mm
Dir
 
Spd
km/h
Gust
km/h
Spd
kts
Gust
kts
09/11:30pm 16.6 15.3 13.7 83 1.6 SSE 13 19 7 10 1018.0 1018.0 0.0
09/11:00pm 16.8 15.1 13.7 82 1.7 SSE 15 19 8 10 1018.3 1018.3 0.0
09/10:30pm 16.9 14.9 13.8 82 1.8 SSE 17 20 9 11 1018.3 1018.3 0.0
09/10:00pm 16.9 15.1 13.4 80 2.0 SSE 15 20 8 11 1018.2 1018.2 0.0
09/09:30pm 17.1 14.9 13.2 78 2.2 SSE 17 20 9 11 1018.4 1018.4 0.0
09/09:00pm 17.2 14.9 13.1 77 2.3 SSE 17 20 9 11 1018.4 1018.4 0.0
09/08:30pm 17.5 15.3 13.2 76 2.4 SSE 17 19 9 10 1018.5 1018.5 0.0
09/08:00pm 18.3 16.9 13.4 73 2.8 SSE 13 17 7 9 1018.5 1018.5 0.0
09/07:30pm 18.6 16.9 13.5 72 2.9 SSE 15 20 8 11 1018.5 1018.5 0.0
09/07:00pm 18.7 16.1 13.3 71 3.1 S 19 24 10 13 1018.5 1018.5 0.0
09/06:30pm 19.4 17.4 13.8 70 3.2 SSE 17 24 9 13 1018.3 1018.3 0.0
09/06:00pm 19.9 17.5 13.8 68 3.5 SSE 19 24 10 13 1018.3 1018.3 0.0
09/05:30pm 20.0 17.6 13.9 68 3.5 SSE 19 24 10 13 1018.7 1018.7 0.0
09/05:00pm 20.9 19.4 14.1 65 3.9 SSE 15 20 8 11 1018.9 1018.9 0.0
09/04:30pm 20.8 19.3 14.2 66 3.8 S 15 22 8 12 1019.2 1019.2 0.0
09/04:00pm 20.4 18.6 13.4 64 4.0 SSE 15 19 8 10 1019.5 1019.5 0.0
09/03:30pm 20.6 18.6 12.8 61 4.4 SSE 15 20 8 11 1019.7 1019.7 0.0
09/03:00pm 21.3 19.1 13.2 60 4.6 SSE 17 20 9 11 1019.9 1019.9 0.0
09/02:30pm 22.2 20.2 13.8 59 4.9 SSE 17 22 9 12 1020.2 1020.2 0.0
09/02:00pm 21.2 18.9 12.9 59 4.7 SSE 17 22 9 12 1020.5 1020.5 0.0
09/01:30pm 21.4 19.3 13.6 61 4.5 SSE 17 22 9 12 1020.7 1020.7 0.0
09/01:00pm 21.1 18.8 13.0 60 4.6 SE 17 20 9 11 1021.0 1021.0 0.0
09/12:30pm 20.5 18.1 12.7 61 4.4 SE 17 20 9 11 1021.4 1021.4 0.0
09/12:00pm 20.3 17.9 12.8 62 4.2 SE 17 22 9 12 1021.7 1021.7 0.0
09/11:30am 19.5 17.4 12.5 64 3.9 SE 15 20 8 11 1022.0 1022.0 0.0
09/11:00am 19.9 18.6 13.8 68 3.5 SE 13 17 7 9 1022.1 1022.1 0.0
09/10:30am 19.1 17.2 13.1 68 3.4 ESE 15 22 8 12 1022.2 1022.2 0.0
09/10:00am 18.6 17.8 12.8 69 3.2 E 9 15 5 8 1022.3 1022.3 0.0
09/09:30am 18.4 17.6 12.8 70 3.1 E 9 15 5 8 1022.6 1022.6 0.0
09/09:00am 17.9 16.3 12.8 72 2.8 ESE 13 24 7 13 1022.6 1022.6 0.0
09/08:30am 17.6 16.5 13.1 75 2.5 E 11 15 6 8 1022.5 1022.5 0.0
09/08:00am 17.4 16.2 12.9 75 2.5 ESE 11 17 6 9 1022.4 1022.4 0.0
09/07:30am 17.3 16.6 13.2 77 2.3 SE 9 15 5 8 1022.3 1022.3 0.0
09/07:00am 17.1 16.4 13.2 78 2.2 ESE 9 13 5 7 1022.2 1022.2 0.0
09/06:30am 16.9 15.8 13.0 78 2.2 SE 11 17 6 9 1022.0 1022.0 0.0
09/06:00am 16.9 15.4 13.2 79 2.1 SE 13 20 7 11 1021.8 1021.8 0.0
09/05:30am 16.9 15.7 12.8 77 2.3 ESE 11 17 6 9 1021.7 1021.7 0.0
09/05:00am 17.1 15.3 13.2 78 2.2 SE 15 22 8 12 1021.7 1021.7 0.0
09/04:30am 17.2 15.8 13.3 78 2.2 SE 13 22 7 12 1021.6 1021.6 0.0
09/04:00am 17.0 15.8 12.9 77 2.3 SE 11 17 6 9 1021.8 1021.8 0.0
09/03:30am 17.1 14.8 13.0 77 2.3 SE 17 22 9 12 1022.0 1022.0 0.0
09/03:00am 17.0 14.7 12.9 77 2.3 SE 17 24 9 13 1022.3 1022.3 0.0
09/02:30am 17.0 14.7 12.9 77 2.3 SE 17 22 9 12 1022.6 1022.6 0.0
09/02:00am 17.0 14.4 13.1 78 2.2 SE 19 24 10 13 1022.9 1022.9 0.0
09/01:30am 16.9 14.7 13.2 79 2.1 SSE 17 24 9 13 1023.1 1023.1 0.0
09/01:00am 17.0 14.4 13.3 79 2.1 SSE 19 24 10 13 1023.3 1023.3 0.0
09/12:30am 16.7 14.0 13.0 79 2.1 SSE 19 24 10 13 1023.5 1023.5 0.0
09/12:00am 16.9 14.2 13.0 78 2.2 SSE 19 22 10 12 1023.6 1023.6 0.0
 
Date/Time
EDT
Temp
°C
App
Temp
°C
Dew
Point
Rel
Hum
%
Delta-T
°C
Wind Press
QNH
hPa
Press
MSL
hPa
Rain
since 9 am
mm
Dir
 
Spd
km/h
Gust
km/h
Spd
kts
Gust
kts
08/11:30pm 17.1 14.2 13.0 77 2.3 SSE 20 26 11 14 1024.0 1024.0 0.0
08/11:00pm 17.4 14.7 13.5 78 2.2 SSE 20 28 11 15 1024.1 1024.1 0.0
08/10:30pm 17.3 14.1 13.0 76 2.4 SSE 22 30 12 16 1024.2 1024.2 0.0
08/10:00pm 17.6 14.9 13.5 77 2.3 SSE 20 28 11 15 1024.2 1024.2 0.0
08/09:30pm 17.7 15.2 14.2 80 2.0 SSE 20 26 11 14 1024.0 1024.0 0.0
08/09:00pm 17.8 15.0 14.3 80 2.0 SSE 22 28 12 15 1023.8 1023.8 0.0
08/08:30pm 17.9 15.6 14.6 81 1.9 SSE 20 28 11 15 1023.7 1023.7 0.0
08/08:00pm 18.4 16.1 14.7 79 2.1 SSE 20 24 11 13 1023.4 1023.4 0.0

Other Formats:

Comma delimited format used in spreadsheet applications
http://www.bom.gov.au/fwo/IDV60801/IDV60801.94830.axf

JavaScript Object Notation format (JSON) in row-major order
http://www.bom.gov.au/fwo/IDV60801/IDV60801.94830.json